Time;durP1;ratioP1;P1;durP2;ratioP2;P2;SDS_P1;SDS_P2;PMS_P1;PMS_P2;Temp;Humidity;BMP_temperature;BMP_pressure;BME280_temperature;BME280_humidity;BME280_pressure;Samples;Min_cycle;Max_cycle;Signal;HPM_P1;HPM_P2
2024/02/07 00:00:22;;;;;;;2.17;0.70;;;7.80;97.90;;;;;;5050092;28;20499;-68
2024/02/07 00:02:47;;;;;;;2.20;0.80;;;7.70;97.80;;;;;;5049206;28;20480;-69
2024/02/07 00:05:13;;;;;;;1.55;0.90;;;7.70;97.80;;;;;;5049102;28;20100;-69
2024/02/07 00:07:38;;;;;;;2.58;0.73;;;7.70;97.80;;;;;;5046153;28;20041;-69
2024/02/07 00:10:04;;;;;;;2.70;1.00;;;7.70;97.80;;;;;;5048221;28;20037;-68
2024/02/07 00:12:30;;;;;;;2.97;1.30;;;7.70;97.60;;;;;;5049821;28;20025;-69
2024/02/07 00:14:56;;;;;;;1.45;0.82;;;7.60;97.60;;;;;;5049514;28;20033;-68
2024/02/07 00:17:21;;;;;;;1.92;0.70;;;7.60;97.60;;;;;;5048204;28;20029;-69
2024/02/07 00:19:48;;;;;;;1.02;0.70;;;7.60;97.60;;;;;;5049752;28;20141;-69
2024/02/07 00:22:13;;;;;;;1.75;0.77;;;7.60;97.50;;;;;;5047594;28;20032;-69
2024/02/07 00:24:39;;;;;;;3.28;0.90;;;7.60;97.50;;;;;;5047760;28;20025;-69
2024/02/07 00:27:05;;;;;;;2.33;0.90;;;7.60;97.50;;;;;;5048122;28;20419;-67
2024/02/07 00:29:31;;;;;;;1.42;0.80;;;7.60;97.50;;;;;;5047067;28;20033;-68
2024/02/07 00:31:56;;;;;;;1.30;0.60;;;7.60;97.40;;;;;;5048214;28;20104;-68
2024/02/07 00:34:22;;;;;;;1.67;0.75;;;7.60;97.40;;;;;;5045900;28;20025;-67
2024/02/07 00:36:48;;;;;;;1.75;0.90;;;7.60;97.40;;;;;;5048291;28;20605;-66
2024/02/07 00:39:13;;;;;;;1.90;0.80;;;7.70;97.40;;;;;;5048705;28;20035;-66
2024/02/07 00:41:39;;;;;;;1.17;0.63;;;7.70;97.30;;;;;;5044554;28;20102;-66
2024/02/07 00:44:05;;;;;;;2.47;0.60;;;7.70;97.30;;;;;;5047346;28;20510;-67
2024/02/07 00:46:30;;;;;;;3.22;0.63;;;7.70;97.30;;;;;;5047337;28;20079;-66
2024/02/07 00:48:56;;;;;;;1.30;0.63;;;7.70;97.10;;;;;;5047351;28;20021;-66
2024/02/07 00:51:22;;;;;;;1.08;0.60;;;7.70;97.20;;;;;;5047487;28;20530;-68
2024/02/07 00:53:47;;;;;;;0.55;0.55;;;7.70;97.20;;;;;;5048211;28;20147;-69
2024/02/07 00:56:13;;;;;;;1.60;0.60;;;7.70;97.20;;;;;;5047854;28;20407;-69
2024/02/07 00:58:39;;;;;;;1.73;0.60;;;7.80;97.20;;;;;;5047727;28;20035;-68
2024/02/07 01:01:05;;;;;;;1.25;0.70;;;7.80;97.00;;;;;;5048089;28;20029;-68
2024/02/07 01:03:31;;;;;;;0.75;0.60;;;7.70;97.00;;;;;;5048541;28;20082;-68
2024/02/07 01:05:57;;;;;;;2.28;0.80;;;7.70;97.10;;;;;;5048097;28;20052;-68
2024/02/07 01:08:22;;;;;;;0.50;0.50;;;7.70;97.00;;;;;;5047985;28;20052;-68
2024/02/07 01:10:48;;;;;;;2.30;0.77;;;7.70;96.90;;;;;;5047351;28;20083;-68
2024/02/07 01:13:14;;;;;;;1.48;0.75;;;7.70;96.90;;;;;;5050070;28;20034;-68
2024/02/07 01:15:39;;;;;;;1.15;0.60;;;7.70;96.80;;;;;;5046738;28;20052;-68
2024/02/07 01:18:05;;;;;;;1.48;0.75;;;7.70;96.80;;;;;;5047392;28;20068;-67
2024/02/07 01:20:31;;;;;;;0.57;0.50;;;7.70;96.70;;;;;;5048150;28;20052;-68
2024/02/07 01:22:56;;;;;;;1.38;0.73;;;7.70;96.80;;;;;;5048092;28;20135;-67
2024/02/07 01:25:22;;;;;;;0.60;0.60;;;7.70;96.80;;;;;;5044925;28;20032;-66
2024/02/07 01:27:48;;;;;;;0.90;0.70;;;7.70;96.70;;;;;;5046773;28;20079;-67
2024/02/07 01:30:13;;;;;;;0.50;0.50;;;7.70;96.60;;;;;;5046657;28;20110;-67
2024/02/07 01:32:44;;;;;;;1.63;0.60;;;7.70;96.60;;;;;;5048055;28;20076;-66
2024/02/07 01:35:11;;;;;;;1.38;0.65;;;7.70;96.60;;;;;;5043377;28;20053;-67
2024/02/07 01:37:40;;;;;;;1.33;0.65;;;7.70;96.70;;;;;;5048461;28;20635;-66
2024/02/07 01:40:10;;;;;;;1.85;0.80;;;7.70;96.60;;;;;;5047409;28;20048;-66
2024/02/07 01:42:36;;;;;;;1.27;0.70;;;7.60;96.60;;;;;;5048250;28;20017;-68
2024/02/07 01:45:23;;;;;;;0.90;0.50;;;7.60;96.60;;;;;;5045925;28;20072;-67
2024/02/07 01:47:50;;;;;;;1.15;0.60;;;7.60;96.60;;;;;;5047402;28;20071;-67
2024/02/07 01:50:16;;;;;;;1.27;0.70;;;7.50;96.60;;;;;;5047559;28;20075;-68
2024/02/07 01:52:45;;;;;;;1.88;0.75;;;7.60;96.50;;;;;;5045137;28;20013;-68
2024/02/07 01:55:12;;;;;;;3.10;0.80;;;7.60;96.50;;;;;;5047439;28;20059;-69
2024/02/07 01:57:38;;;;;;;1.23;0.65;;;7.60;96.60;;;;;;5045922;28;20547;-68
2024/02/07 02:00:06;;;;;;;0.70;0.70;;;7.70;96.40;;;;;;5047548;28;20033;-68
2024/02/07 02:02:32;;;;;;;1.25;0.77;;;7.60;96.30;;;;;;5045446;28;20036;-68
2024/02/07 02:04:58;;;;;;;2.03;0.80;;;7.60;96.50;;;;;;5040923;28;20025;-68
2024/02/07 02:07:24;;;;;;;2.05;0.90;;;7.50;96.20;;;;;;5045682;28;20030;-68
2024/02/07 02:09:50;;;;;;;1.17;0.75;;;7.50;96.30;;;;;;5044839;28;20021;-67
2024/02/07 02:12:16;;;;;;;2.90;0.68;;;7.50;96.20;;;;;;5046765;28;20036;-67
2024/02/07 02:14:42;;;;;;;2.40;0.80;;;7.50;96.30;;;;;;5047618;28;20044;-67
2024/02/07 02:17:08;;;;;;;1.42;0.60;;;7.40;96.20;;;;;;5046623;28;20021;-67
2024/02/07 02:19:36;;;;;;;1.45;0.80;;;7.40;96.30;;;;;;5042946;28;20021;-68
2024/02/07 02:22:32;;;;;;;0.98;0.68;;;7.30;96.30;;;;;;5044172;28;20075;-68
2024/02/07 02:25:03;;;;;;;0.80;0.70;;;7.40;96.40;;;;;;5043555;28;20112;-68
2024/02/07 02:27:28;;;;;;;1.67;0.70;;;7.30;96.20;;;;;;5051756;28;20666;-68
2024/02/07 02:29:58;;;;;;;1.92;0.80;;;7.20;96.20;;;;;;5052316;28;20098;-69
2024/02/07 02:32:25;;;;;;;1.10;0.65;;;7.30;96.30;;;;;;5050820;28;20029;-68
2024/02/07 02:34:52;;;;;;;1.95;0.80;;;7.30;96.30;;;;;;5047063;28;20052;-68
2024/02/07 02:37:18;;;;;;;1.70;0.88;;;7.30;96.20;;;;;;5050728;28;20025;-68
2024/02/07 02:39:44;;;;;;;2.40;0.98;;;7.20;96.20;;;;;;5048144;28;20029;-68
2024/02/07 02:42:09;;;;;;;1.52;0.80;;;7.20;96.10;;;;;;5049807;28;20028;-68
2024/02/07 02:44:35;;;;;;;1.52;0.80;;;7.20;96.10;;;;;;5050410;28;20527;-68
2024/02/07 02:47:02;;;;;;;2.80;0.93;;;7.20;96.10;;;;;;5049874;28;20107;-68
2024/02/07 02:49:29;;;;;;;1.38;0.80;;;7.10;96.10;;;;;;5049860;28;20016;-68
2024/02/07 02:51:55;;;;;;;0.73;0.70;;;7.10;96.10;;;;;;5050836;28;20024;-67
2024/02/07 02:54:21;;;;;;;1.70;0.65;;;7.10;96.20;;;;;;5050134;28;20016;-67
2024/02/07 02:56:47;;;;;;;1.95;0.90;;;7.10;96.20;;;;;;5052511;28;20078;-67
2024/02/07 02:59:14;;;;;;;1.88;0.80;;;7.10;96.20;;;;;;5052632;28;20450;-67
2024/02/07 03:01:40;;;;;;;2.10;1.00;;;7.00;96.10;;;;;;5053380;28;20622;-67
2024/02/07 03:04:06;;;;;;;1.85;0.70;;;6.90;95.90;;;;;;5053039;28;20051;-67
2024/02/07 03:06:50;;;;;;;2.38;0.90;;;6.80;96.00;;;;;;5052980;28;20017;-67
2024/02/07 03:09:20;;;;;;;2.85;0.98;;;6.80;95.90;;;;;;5052754;28;20017;-67
2024/02/07 03:11:48;;;;;;;0.73;0.68;;;6.70;95.90;;;;;;5053461;28;20037;-67
2024/02/07 03:14:14;;;;;;;1.45;0.70;;;6.70;96.00;;;;;;5051791;28;20115;-67
2024/02/07 03:16:39;;;;;;;0.95;0.70;;;6.70;96.00;;;;;;5051202;28;20068;-67
2024/02/07 03:19:05;;;;;;;1.50;0.77;;;6.60;96.00;;;;;;5050703;28;20025;-67
2024/02/07 03:21:30;;;;;;;0.85;0.60;;;6.60;96.00;;;;;;5049198;28;20043;-68
2024/02/07 03:23:56;;;;;;;0.70;0.70;;;6.70;96.00;;;;;;5051548;28;20391;-68
2024/02/07 03:26:25;;;;;;;1.23;0.63;;;6.70;95.90;;;;;;5049711;28;20025;-68
2024/02/07 03:28:51;;;;;;;0.93;0.63;;;6.80;95.90;;;;;;5046688;28;20055;-68
2024/02/07 03:31:17;;;;;;;1.33;0.70;;;6.80;95.80;;;;;;5049977;28;20032;-68
2024/02/07 03:33:43;;;;;;;2.05;0.90;;;6.70;95.70;;;;;;5049631;28;20041;-68
2024/02/07 03:36:10;;;;;;;1.75;0.70;;;6.70;95.70;;;;;;5049132;28;20045;-68
2024/02/07 03:38:36;;;;;;;2.47;0.70;;;6.60;95.80;;;;;;5050277;28;20025;-68
2024/02/07 03:41:01;;;;;;;2.83;0.80;;;6.60;95.80;;;;;;5048611;28;20039;-66
2024/02/07 03:43:27;;;;;;;1.52;0.70;;;6.60;95.90;;;;;;5050015;28;20104;-67
2024/02/07 03:45:53;;;;;;;0.70;0.70;;;6.60;95.80;;;;;;5049329;28;20163;-66
2024/02/07 03:48:19;;;;;;;1.58;0.60;;;6.60;95.80;;;;;;5049119;28;20044;-67
2024/02/07 03:50:48;;;;;;;1.08;0.77;;;6.60;95.80;;;;;;5047927;28;20487;-68
2024/02/07 03:53:14;;;;;;;2.28;0.70;;;6.50;95.70;;;;;;5049663;28;20028;-67
2024/02/07 03:55:40;;;;;;;1.55;0.77;;;6.50;95.70;;;;;;5047469;28;20025;-67
2024/02/07 03:58:06;;;;;;;0.95;0.60;;;6.50;95.70;;;;;;5049866;28;20025;-67
2024/02/07 04:00:32;;;;;;;0.70;0.60;;;6.50;95.70;;;;;;5049562;28;20017;-67
2024/02/07 04:02:58;;;;;;;2.38;0.70;;;6.50;95.70;;;;;;5046175;28;20028;-67
2024/02/07 04:05:24;;;;;;;0.52;0.52;;;6.50;95.60;;;;;;5048793;28;20017;-67
2024/02/07 04:07:50;;;;;;;2.92;0.73;;;6.50;95.60;;;;;;5047651;28;20522;-68
2024/02/07 04:10:18;;;;;;;0.73;0.68;;;6.50;95.60;;;;;;5047496;28;20479;-68
2024/02/07 05:15:40;;;;;;;1.65;0.68;;;7.00;95.00;;;;;;5047719;28;21508;-69
2024/02/07 05:18:06;;;;;;;1.52;0.70;;;7.00;95.10;;;;;;5045866;28;20025;-69
2024/02/07 05:20:31;;;;;;;1.02;0.55;;;6.90;95.00;;;;;;5044677;28;20029;-69
2024/02/07 05:22:57;;;;;;;0.88;0.60;;;6.90;94.90;;;;;;5045438;28;20025;-69
2024/02/07 05:25:23;;;;;;;1.02;0.70;;;6.90;95.00;;;;;;5044567;28;20112;-69
2024/02/07 05:27:49;;;;;;;1.30;0.60;;;7.00;95.00;;;;;;5046855;28;20044;-69
2024/02/07 05:30:16;;;;;;;0.82;0.65;;;7.00;94.90;;;;;;5047855;28;20071;-68
2024/02/07 05:32:42;;;;;;;0.60;0.50;;;7.00;94.90;;;;;;5045399;28;20033;-69
2024/02/07 05:35:08;;;;;;;0.60;0.60;;;7.00;94.80;;;;;;5046012;28;20657;-68
2024/02/07 05:37:35;;;;;;;1.63;0.70;;;7.00;94.80;;;;;;5045007;28;20029;-68
2024/02/07 05:40:01;;;;;;;1.10;0.55;;;7.00;94.90;;;;;;5045166;28;20430;-67
2024/02/07 05:42:26;;;;;;;0.50;0.50;;;7.00;94.80;;;;;;5040370;28;20013;-68
2024/02/07 05:44:52;;;;;;;1.33;0.60;;;7.00;94.90;;;;;;5046975;28;20391;-68
2024/02/07 05:47:18;;;;;;;0.60;0.60;;;7.00;94.90;;;;;;5045436;28;20100;-67
2024/02/07 05:49:43;;;;;;;0.50;0.50;;;6.90;94.90;;;;;;5042899;28;20094;-67
2024/02/07 05:52:10;;;;;;;0.88;0.60;;;6.90;94.90;;;;;;5047797;28;20052;-67
2024/02/07 05:54:35;;;;;;;1.15;0.70;;;7.00;94.90;;;;;;5045679;28;20041;-66
2024/02/07 05:57:01;;;;;;;0.85;0.60;;;6.90;94.90;;;;;;5044777;28;20033;-67
2024/02/07 05:59:26;;;;;;;0.80;0.63;;;6.90;94.90;;;;;;5042040;28;20029;-68
2024/02/07 06:01:52;;;;;;;0.60;0.60;;;7.00;94.90;;;;;;5051624;28;20059;-68
2024/02/07 06:04:18;;;;;;;0.88;0.60;;;7.00;94.90;;;;;;5045607;28;20490;-68
2024/02/07 06:06:49;;;;;;;3.72;0.85;;;7.00;94.90;;;;;;5051525;28;20049;-69
2024/02/07 06:09:15;;;;;;;1.23;0.70;;;7.00;94.80;;;;;;5052249;28;20021;-69
2024/02/07 06:11:42;;;;;;;0.50;0.50;;;7.00;94.70;;;;;;5051220;28;20016;-69
2024/02/07 06:14:11;;;;;;;1.25;0.68;;;6.90;94.70;;;;;;5044656;28;20025;-68
2024/02/07 06:16:38;;;;;;;1.58;0.60;;;6.90;94.80;;;;;;5051895;28;20479;-67
2024/02/07 06:19:04;;;;;;;0.50;0.50;;;6.90;94.80;;;;;;5050591;28;20040;-68
2024/02/07 06:21:30;;;;;;;0.60;0.60;;;6.90;94.80;;;;;;5048858;28;20383;-68
2024/02/07 06:23:56;;;;;;;1.10;0.70;;;6.90;94.80;;;;;;5047812;28;20040;-68
2024/02/07 06:26:21;;;;;;;0.50;0.50;;;6.90;94.90;;;;;;5050345;28;20021;-68
2024/02/07 06:28:47;;;;;;;1.35;0.70;;;6.90;94.90;;;;;;5048251;28;20029;-68
2024/02/07 06:31:13;;;;;;;2.50;0.60;;;6.90;94.80;;;;;;5047470;28;20040;-67
2024/02/07 06:33:39;;;;;;;0.68;0.60;;;6.90;94.80;;;;;;5049836;28;20183;-68
2024/02/07 06:36:05;;;;;;;0.98;0.70;;;6.90;94.80;;;;;;5047948;28;20394;-68
2024/02/07 06:38:31;;;;;;;2.90;0.60;;;7.00;94.80;;;;;;5049175;28;20387;-68
2024/02/07 06:40:56;;;;;;;0.73;0.60;;;7.00;94.80;;;;;;5046637;28;20028;-68
2024/02/07 06:43:22;;;;;;;0.70;0.70;;;6.90;94.60;;;;;;5048514;28;20021;-68
2024/02/07 06:45:48;;;;;;;1.20;0.63;;;7.00;94.70;;;;;;5048794;28;20083;-67
2024/02/07 06:48:13;;;;;;;1.85;0.70;;;6.90;94.70;;;;;;5047805;28;20394;-68
2024/02/07 06:50:39;;;;;;;0.90;0.80;;;6.90;94.60;;;;;;5047609;28;20572;-68
2024/02/07 06:53:04;;;;;;;2.78;0.70;;;6.90;94.60;;;;;;5044796;28;20483;-67
2024/02/07 06:55:31;;;;;;;2.95;1.00;;;6.90;94.70;;;;;;5043508;28;20534;-68
2024/02/07 06:57:56;;;;;;;1.65;0.68;;;6.90;94.60;;;;;;5044437;28;20033;-68
2024/02/07 07:00:22;;;;;;;1.70;0.90;;;6.90;94.60;;;;;;5044727;28;20137;-68
2024/02/07 07:02:47;;;;;;;1.27;0.93;;;6.90;94.60;;;;;;5048534;28;20068;-68
2024/02/07 07:05:13;;;;;;;0.77;0.60;;;6.90;94.50;;;;;;5044442;28;20025;-68
2024/02/07 07:07:38;;;;;;;1.02;0.70;;;6.90;94.40;;;;;;5049176;28;20057;-67
2024/02/07 07:10:04;;;;;;;1.67;0.70;;;6.90;94.40;;;;;;5046909;28;20026;-67
2024/02/07 07:12:30;;;;;;;1.10;0.65;;;6.90;94.40;;;;;;5048157;28;20070;-71
2024/02/07 07:14:56;;;;;;;0.95;0.70;;;6.90;94.50;;;;;;5044480;28;20028;-70
2024/02/07 07:17:21;;;;;;;2.45;0.80;;;7.00;94.50;;;;;;5051188;28;20033;-69
2024/02/07 07:19:47;;;;;;;1.08;0.70;;;7.00;94.40;;;;;;5046025;28;20055;-69
2024/02/07 07:22:13;;;;;;;1.33;0.70;;;7.00;94.50;;;;;;5051193;28;20462;-69
2024/02/07 07:24:38;;;;;;;0.95;0.70;;;7.00;94.50;;;;;;5046797;28;20021;-68
2024/02/07 07:27:05;;;;;;;0.93;0.70;;;7.00;94.50;;;;;;5047779;28;20503;-68
2024/02/07 07:29:31;;;;;;;2.00;0.82;;;7.00;94.50;;;;;;5050554;28;20040;-68
2024/02/07 07:31:57;;;;;;;2.78;0.77;;;7.00;94.40;;;;;;5053483;28;20491;-67
2024/02/07 07:34:23;;;;;;;2.15;0.80;;;7.10;94.40;;;;;;5049692;28;20025;-67
2024/02/07 07:36:51;;;;;;;1.33;1.00;;;7.10;94.40;;;;;;5046126;28;20033;-67
2024/02/07 07:39:17;;;;;;;0.90;0.60;;;7.00;94.30;;;;;;5049515;28;20112;-68
2024/02/07 07:41:42;;;;;;;0.90;0.70;;;7.00;94.30;;;;;;5049624;28;20550;-68
2024/02/07 07:44:08;;;;;;;1.52;0.70;;;7.10;94.40;;;;;;5046362;28;20606;-68
2024/02/07 07:46:33;;;;;;;1.50;0.75;;;7.10;94.30;;;;;;5047865;28;20379;-68
2024/02/07 07:48:59;;;;;;;1.02;0.70;;;7.10;94.20;;;;;;5049160;28;20036;-68
2024/02/07 07:51:26;;;;;;;2.65;0.90;;;7.20;94.10;;;;;;5044782;28;20053;-67
2024/02/07 07:53:52;;;;;;;1.00;0.90;;;7.10;94.10;;;;;;5049747;28;20498;-68
2024/02/07 07:56:18;;;;;;;1.08;0.75;;;7.10;94.00;;;;;;5046666;28;20051;-67
2024/02/07 07:58:48;;;;;;;0.85;0.70;;;7.20;94.00;;;;;;5047200;28;20040;-68
2024/02/07 08:01:14;;;;;;;1.60;0.85;;;7.20;93.90;;;;;;5047140;28;20094;-68
2024/02/07 08:03:40;;;;;;;0.73;0.73;;;7.10;93.90;;;;;;5049021;28;20096;-67
2024/02/07 08:06:07;;;;;;;1.00;0.88;;;7.10;94.10;;;;;;5048718;28;20151;-67
2024/02/07 08:08:33;;;;;;;1.83;0.90;;;7.00;94.10;;;;;;5047486;28;20476;-68
2024/02/07 08:10:59;;;;;;;2.25;1.00;;;7.00;94.10;;;;;;5048640;28;20078;-68
2024/02/07 08:13:25;;;;;;;1.67;0.80;;;7.10;94.20;;;;;;5049364;28;20074;-68
2024/02/07 08:15:50;;;;;;;1.08;0.98;;;7.10;94.20;;;;;;5044452;28;20025;-69
2024/02/07 08:18:16;;;;;;;1.10;0.80;;;7.10;94.10;;;;;;5045550;28;20238;-68
2024/02/07 08:20:41;;;;;;;1.08;0.90;;;7.10;94.00;;;;;;5048488;28;20041;-68
2024/02/07 08:23:07;;;;;;;1.27;0.82;;;7.10;94.00;;;;;;5039215;28;20580;-68
2024/02/07 08:25:32;;;;;;;0.80;0.80;;;7.10;94.00;;;;;;5048889;28;20387;-68
2024/02/07 08:27:58;;;;;;;1.83;0.80;;;7.20;94.00;;;;;;5049066;28;20541;-68
2024/02/07 08:30:23;;;;;;;1.40;0.90;;;7.20;94.00;;;;;;5046393;28;20068;-68
2024/02/07 08:32:50;;;;;;;2.13;0.90;;;7.20;94.00;;;;;;5048196;28;20040;-68
2024/02/07 08:35:15;;;;;;;2.00;0.80;;;7.20;94.00;;;;;;5046870;28;20146;-68
2024/02/07 08:37:41;;;;;;;1.63;0.90;;;7.20;94.00;;;;;;5050787;28;20477;-68
2024/02/07 08:40:07;;;;;;;0.85;0.60;;;7.20;94.00;;;;;;5052460;28;20020;-68
2024/02/07 08:42:34;;;;;;;1.45;0.82;;;7.20;94.00;;;;;;5044635;28;20391;-68
2024/02/07 08:45:03;;;;;;;1.67;0.90;;;7.20;94.00;;;;;;5047217;28;20021;-68
2024/02/07 08:47:29;;;;;;;1.08;0.70;;;7.30;94.00;;;;;;5047722;28;20483;-68
2024/02/07 08:49:55;;;;;;;1.48;0.80;;;7.30;93.90;;;;;;5046699;28;20035;-69
2024/02/07 08:52:20;;;;;;;1.83;0.90;;;7.40;93.80;;;;;;5050534;28;20033;-69
2024/02/07 08:54:46;;;;;;;2.55;1.23;;;7.40;93.70;;;;;;5043148;28;20036;-68
2024/02/07 08:57:12;;;;;;;1.10;0.90;;;7.40;93.70;;;;;;5049109;28;20021;-68
2024/02/07 08:59:37;;;;;;;1.20;0.80;;;7.40;93.80;;;;;;5047399;28;20048;-68
2024/02/07 09:02:06;;;;;;;2.40;0.90;;;7.40;93.80;;;;;;5048524;28;20075;-67
2024/02/07 09:04:31;;;;;;;2.17;0.98;;;7.40;93.80;;;;;;5046694;28;20109;-68
2024/02/07 09:06:57;;;;;;;1.63;0.85;;;7.40;93.70;;;;;;5047626;28;20100;-68
2024/02/07 09:09:22;;;;;;;1.92;0.80;;;7.40;93.70;;;;;;5045581;28;20033;-68
2024/02/07 09:11:48;;;;;;;1.27;0.95;;;7.40;93.80;;;;;;5049878;28;20033;-68
2024/02/07 09:14:13;;;;;;;0.93;0.80;;;7.50;93.70;;;;;;5042388;28;20040;-68
2024/02/07 09:16:39;;;;;;;1.38;0.80;;;7.40;93.60;;;;;;5047428;28;20124;-68
2024/02/07 09:19:05;;;;;;;1.30;0.85;;;7.40;93.80;;;;;;5044969;28;20060;-69
2024/02/07 09:21:31;;;;;;;1.73;0.80;;;7.50;93.80;;;;;;5046172;28;20025;-68
2024/02/07 09:23:57;;;;;;;1.48;1.00;;;7.50;93.80;;;;;;5047900;28;20120;-68
2024/02/07 09:26:22;;;;;;;2.85;0.80;;;7.50;93.80;;;;;;5047226;28;20091;-68
2024/02/07 09:28:48;;;;;;;1.20;0.90;;;7.60;93.80;;;;;;5048415;28;20112;-68
2024/02/07 09:31:13;;;;;;;2.17;1.00;;;7.60;93.70;;;;;;5049823;28;20064;-68
2024/02/07 09:33:39;;;;;;;2.10;1.00;;;7.60;93.70;;;;;;5050044;28;20066;-68
2024/02/07 09:36:05;;;;;;;1.88;1.10;;;7.70;93.70;;;;;;5048747;28;20039;-68
2024/02/07 09:38:31;;;;;;;1.13;0.90;;;7.70;93.60;;;;;;5046823;28;20383;-68
2024/02/07 09:40:58;;;;;;;1.58;0.82;;;7.80;93.60;;;;;;5038029;28;20429;-68
2024/02/07 09:43:24;;;;;;;2.33;0.90;;;7.80;93.50;;;;;;5047973;28;20082;-67
2024/02/07 09:45:59;;;;;;;1.27;0.80;;;7.80;93.40;;;;;;5046913;28;20035;-68
2024/02/07 09:48:28;;;;;;;2.08;0.75;;;7.90;93.40;;;;;;5047568;28;20489;-68
2024/02/07 09:50:57;;;;;;;1.45;0.85;;;8.00;93.30;;;;;;5047687;28;20289;-67
2024/02/07 09:53:25;;;;;;;1.20;1.10;;;8.00;93.20;;;;;;5043462;28;20029;-68
2024/02/07 09:55:53;;;;;;;2.63;0.90;;;8.00;93.20;;;;;;5050913;28;20487;-68
2024/02/07 09:58:19;;;;;;;1.75;0.77;;;8.10;93.50;;;;;;5051921;28;20029;-68
2024/02/07 10:00:46;;;;;;;1.98;0.90;;;8.10;93.20;;;;;;5047036;28;20029;-68
2024/02/07 10:03:14;;;;;;;1.65;0.80;;;8.10;93.10;;;;;;5047350;28;20033;-68
2024/02/07 10:05:50;;;;;;;2.05;0.95;;;8.10;93.20;;;;;;5048220;28;20032;-68
2024/02/07 10:08:16;;;;;;;1.88;0.68;;;8.20;93.20;;;;;;5047489;28;20030;-68
2024/02/07 10:10:48;;;;;;;1.40;0.90;;;8.20;93.10;;;;;;5051230;28;20082;-68
2024/02/07 10:13:15;;;;;;;1.02;0.93;;;8.20;92.90;;;;;;5047345;28;20363;-68
2024/02/07 10:15:42;;;;;;;0.80;0.80;;;8.30;92.90;;;;;;5048843;28;20085;-68
2024/02/07 10:18:08;;;;;;;1.38;0.75;;;8.20;92.90;;;;;;5041591;28;20099;-68
2024/02/07 10:20:34;;;;;;;4.05;1.70;;;8.20;92.90;;;;;;5045202;28;20029;-68
2024/02/07 10:22:59;;;;;;;1.10;0.85;;;8.20;92.80;;;;;;5045327;28;20476;-68
2024/02/07 10:25:25;;;;;;;1.05;0.77;;;8.20;92.90;;;;;;5045516;28;20163;-68
2024/02/07 10:28:01;;;;;;;2.25;0.90;;;8.20;93.00;;;;;;5048463;28;20064;-67
2024/02/07 10:30:27;;;;;;;1.70;0.90;;;8.20;93.00;;;;;;5047448;28;20149;-67
2024/02/07 10:32:52;;;;;;;2.25;1.08;;;8.20;93.00;;;;;;5045267;28;20116;-68
2024/02/07 10:35:18;;;;;;;1.60;0.90;;;8.20;93.00;;;;;;5045723;28;20036;-68
2024/02/07 10:37:44;;;;;;;1.58;0.75;;;8.20;92.80;;;;;;5044591;28;20130;-68
2024/02/07 10:40:11;;;;;;;2.60;0.85;;;8.20;92.80;;;;;;5047831;28;20025;-68
2024/02/07 10:42:39;;;;;;;2.50;0.90;;;8.20;92.80;;;;;;5041605;28;20403;-68
2024/02/07 10:45:11;;;;;;;0.80;0.73;;;8.30;92.80;;;;;;5046517;28;20111;-68
2024/02/07 10:47:37;;;;;;;2.17;0.88;;;8.30;92.80;;;;;;5049504;28;20032;-67
2024/02/07 10:50:05;;;;;;;1.67;0.80;;;8.30;92.70;;;;;;5053888;28;20104;-67
2024/02/07 10:52:32;;;;;;;0.82;0.70;;;8.30;92.70;;;;;;5052973;28;20048;-68
2024/02/07 10:54:58;;;;;;;1.55;0.88;;;8.30;92.70;;;;;;5049805;28;20049;-68
2024/02/07 10:57:38;;;;;;;2.55;0.80;;;8.30;92.70;;;;;;5047639;28;20024;-68
2024/02/07 11:00:06;;;;;;;1.58;0.80;;;8.30;92.70;;;;;;5050503;28;20017;-69
2024/02/07 11:02:32;;;;;;;2.45;0.80;;;8.40;92.80;;;;;;5047595;28;20352;-69
2024/02/07 11:05:00;;;;;;;1.38;0.73;;;8.40;92.70;;;;;;5050903;28;20368;-69
2024/02/07 11:07:26;;;;;;;1.63;0.80;;;8.40;92.70;;;;;;5049439;28;20521;-69
2024/02/07 11:09:53;;;;;;;3.80;0.90;;;8.50;92.70;;;;;;5050136;28;20100;-69
2024/02/07 11:12:18;;;;;;;2.95;0.80;;;8.60;92.60;;;;;;5047963;28;21209;-69
2024/02/07 11:14:47;;;;;;;1.33;0.70;;;8.70;92.40;;;;;;5050005;28;20021;-67
2024/02/07 11:17:14;;;;;;;2.03;0.65;;;8.70;92.30;;;;;;5052356;28;20396;-68
2024/02/07 11:19:43;;;;;;;3.70;0.90;;;8.70;92.30;;;;;;5046898;28;20499;-68
2024/02/07 11:22:21;;;;;;;3.97;0.88;;;8.80;92.20;;;;;;5052441;28;20037;-68
2024/02/07 11:24:50;;;;;;;2.75;1.00;;;8.80;92.00;;;;;;5053383;28;20395;-68
2024/02/07 11:27:16;;;;;;;2.10;0.80;;;8.90;91.90;;;;;;5047281;28;20024;-68
2024/02/07 11:29:42;;;;;;;2.50;0.90;;;8.90;91.90;;;;;;5045150;28;20021;-68
2024/02/07 11:32:09;;;;;;;1.92;1.15;;;8.90;91.70;;;;;;5046733;28;21381;-67
2024/02/07 11:34:40;;;;;;;2.90;0.95;;;8.90;91.70;;;;;;5046497;28;20112;-68
2024/02/07 11:37:10;;;;;;;2.53;0.80;;;8.90;91.60;;;;;;5047985;28;20087;-68
2024/02/07 11:39:39;;;;;;;2.80;0.80;;;8.90;91.70;;;;;;5047413;28;20037;-68
2024/02/07 11:42:13;;;;;;;1.58;0.73;;;8.90;91.60;;;;;;5049520;28;20040;-68
2024/02/07 11:44:52;;;;;;;2.53;0.90;;;8.90;91.60;;;;;;5048354;28;20029;-68
2024/02/07 11:47:24;;;;;;;1.85;0.98;;;9.00;91.60;;;;;;5047312;28;20056;-68
2024/02/07 11:49:59;;;;;;;;;;;8.90;91.60;;;;;;5050431;28;20029;-69
2024/02/07 11:52:29;;;;;;;1.98;0.80;;;8.90;91.50;;;;;;5048577;28;19909;-69
2024/02/07 11:55:10;;;;;;;1.92;1.00;;;8.90;91.50;;;;;;5046936;28;20434;-67
2024/02/07 11:57:39;;;;;;;2.73;0.90;;;8.90;91.40;;;;;;5047476;28;20036;-68
2024/02/07 12:00:06;;;;;;;1.88;0.75;;;8.90;91.40;;;;;;5044484;28;20040;-67
2024/02/07 12:02:32;;;;;;;1.50;0.80;;;8.90;91.40;;;;;;5043908;28;20025;-68
2024/02/07 12:04:58;;;;;;;1.63;0.70;;;8.90;91.30;;;;;;5048734;28;20021;-69
2024/02/07 12:07:25;;;;;;;1.95;0.77;;;9.10;91.30;;;;;;5045372;28;20087;-69
2024/02/07 12:09:51;;;;;;;3.80;1.00;;;9.40;91.30;;;;;;5040925;28;20028;-68
2024/02/07 12:12:17;;;;;;;2.92;0.88;;;9.70;90.60;;;;;;5048082;28;20388;-68
2024/02/07 12:14:43;;;;;;;2.65;0.80;;;9.60;90.50;;;;;;5046598;28;20029;-69
2024/02/07 12:17:09;;;;;;;2.85;0.90;;;9.60;90.60;;;;;;5044589;28;20797;-68
2024/02/07 12:19:38;;;;;;;2.58;0.90;;;10.60;90.00;;;;;;5048796;28;20063;-69
2024/02/07 12:22:03;;;;;;;3.58;0.75;;;11.60;86.40;;;;;;5047574;28;20672;-68
2024/02/07 12:24:31;;;;;;;1.23;0.70;;;11.90;83.60;;;;;;5047955;28;20029;-69
2024/02/07 12:27:17;;;;;;;2.10;0.77;;;11.90;82.60;;;;;;5048528;28;20036;-69
2024/02/07 12:29:53;;;;;;;3.35;0.80;;;11.70;82.40;;;;;;5045617;28;20044;-69
2024/02/07 12:32:19;;;;;;;3.95;0.98;;;11.10;83.80;;;;;;5045553;28;20032;-68
2024/02/07 12:34:46;;;;;;;2.42;0.90;;;10.60;85.30;;;;;;5046801;28;20032;-68
2024/02/07 12:37:17;;;;;;;3.17;0.70;;;10.40;86.50;;;;;;5044402;28;20052;-68
2024/02/07 12:39:50;;;;;;;1.65;0.80;;;10.30;87.10;;;;;;5047053;28;20032;-68
2024/02/07 12:42:20;;;;;;;2.53;0.70;;;10.20;87.40;;;;;;5041357;28;20024;-67
2024/02/07 12:44:50;;;;;;;4.45;0.80;;;10.10;88.00;;;;;;5047641;28;20036;-68
2024/02/07 12:47:20;;;;;;;3.17;0.95;;;10.00;88.20;;;;;;5043918;28;20526;-67
2024/02/07 12:49:46;;;;;;;2.55;0.80;;;9.90;88.40;;;;;;5047979;28;20052;-68
2024/02/07 12:52:12;;;;;;;0.85;0.60;;;9.80;88.60;;;;;;5045314;28;20626;-69
2024/02/07 12:54:39;;;;;;;3.55;0.80;;;9.70;88.40;;;;;;5045371;28;20135;-68
2024/02/07 12:57:04;;;;;;;2.78;0.70;;;9.60;88.60;;;;;;5049190;28;20038;-68
2024/02/07 12:59:34;;;;;;;3.38;0.63;;;9.60;88.90;;;;;;5045807;28;20055;-69
2024/02/07 13:02:08;;;;;;;2.13;0.80;;;9.60;88.90;;;;;;5050070;28;20070;-69
2024/02/07 13:04:34;;;;;;;2.83;0.77;;;9.50;88.80;;;;;;5045189;28;20112;-69
2024/02/07 13:07:00;;;;;;;1.50;0.60;;;9.60;88.80;;;;;;5046982;28;20104;-69
2024/02/07 13:09:27;;;;;;;2.92;0.73;;;9.60;88.40;;;;;;5046939;28;20051;-69
2024/02/07 13:11:53;;;;;;;2.67;0.88;;;9.70;88.30;;;;;;5043186;28;20021;-69
2024/02/07 13:14:18;;;;;;;1.15;0.60;;;9.70;88.00;;;;;;5046283;28;20025;-69
2024/02/07 13:16:45;;;;;;;0.77;0.60;;;9.70;87.80;;;;;;5044892;28;20029;-69
2024/02/07 13:19:14;;;;;;;1.58;0.60;;;9.70;87.50;;;;;;5045399;28;20382;-69
2024/02/07 13:21:41;;;;;;;1.50;0.80;;;9.60;87.40;;;;;;5046362;28;21575;-69
2024/02/07 13:24:15;;;;;;;1.40;0.55;;;9.60;87.60;;;;;;5048118;28;20475;-68
2024/02/07 13:26:42;;;;;;;1.45;0.60;;;9.70;87.80;;;;;;5044907;28;20052;-68
2024/02/07 13:29:08;;;;;;;1.58;0.60;;;9.70;87.70;;;;;;5045319;28;20049;-68
2024/02/07 13:31:34;;;;;;;1.02;0.60;;;9.80;87.80;;;;;;5045946;28;20101;-68
2024/02/07 13:34:00;;;;;;;1.38;0.70;;;9.90;87.70;;;;;;5048495;28;20032;-68
2024/02/07 13:36:26;;;;;;;2.78;0.57;;;10.00;87.40;;;;;;5046705;28;20029;-68
2024/02/07 13:38:51;;;;;;;1.60;0.60;;;10.10;86.90;;;;;;5046500;28;20606;-68
2024/02/07 13:41:19;;;;;;;1.60;0.70;;;10.10;86.50;;;;;;5046229;28;20028;-68
2024/02/07 13:43:46;;;;;;;3.78;0.88;;;10.10;86.60;;;;;;5043916;28;20017;-68
2024/02/07 13:46:11;;;;;;;2.05;0.63;;;10.20;86.50;;;;;;5043856;28;20026;-68
2024/02/07 13:48:38;;;;;;;1.55;0.90;;;10.20;86.40;;;;;;5046907;28;20025;-68
2024/02/07 13:51:05;;;;;;;2.50;0.68;;;10.20;86.10;;;;;;5045634;28;20284;-68
2024/02/07 13:53:30;;;;;;;3.35;0.73;;;10.20;86.10;;;;;;5043431;28;20048;-68
2024/02/07 13:55:57;;;;;;;2.67;0.70;;;10.20;85.90;;;;;;5044728;28;20025;-68
2024/02/07 13:58:24;;;;;;;1.58;0.55;;;10.10;85.50;;;;;;5043632;28;20033;-68